sensor_id;sensor_type;location;lat;lon;timestamp;temperature;humidity
3626;DHT22;1827;50.534;8.316;2023-03-01T00:01:27;-4.20;1.00
3626;DHT22;1827;50.534;8.316;2023-03-01T00:03:54;-4.30;1.00
3626;DHT22;1827;50.534;8.316;2023-03-01T00:06:29;-4.30;1.00
3626;DHT22;1827;50.534;8.316;2023-03-01T00:08:59;-4.30;1.00
3626;DHT22;1827;50.534;8.316;2023-03-01T00:11:28;-4.30;1.00
3626;DHT22;1827;50.534;8.316;2023-03-01T00:14:00;-4.30;1.00
3626;DHT22;1827;50.534;8.316;2023-03-01T00:16:33;-4.20;1.00
3626;DHT22;1827;50.534;8.316;2023-03-01T00:19:15;-4.30;1.00
3626;DHT22;1827;50.534;8.316;2023-03-01T00:21:43;-4.30;1.00
3626;DHT22;1827;50.534;8.316;2023-03-01T00:24:10;-4.30;1.00
3626;DHT22;1827;50.534;8.316;2023-03-01T00:26:39;-4.30;1.00
3626;DHT22;1827;50.534;8.316;2023-03-01T00:29:08;-4.30;1.00
3626;DHT22;1827;50.534;8.316;2023-03-01T00:31:37;-4.40;1.00
3626;DHT22;1827;50.534;8.316;2023-03-01T00:34:06;-4.40;1.00
3626;DHT22;1827;50.534;8.316;2023-03-01T00:36:35;-4.50;1.00
3626;DHT22;1827;50.534;8.316;2023-03-01T00:39:07;-4.50;1.00
3626;DHT22;1827;50.534;8.316;2023-03-01T00:41:37;-4.50;1.00
3626;DHT22;1827;50.534;8.316;2023-03-01T00:44:03;-4.40;1.00
3626;DHT22;1827;50.534;8.316;2023-03-01T00:46:35;-4.40;1.00
3626;DHT22;1827;50.534;8.316;2023-03-01T00:49:01;-4.40;1.00
3626;DHT22;1827;50.534;8.316;2023-03-01T00:51:31;-4.40;1.00
3626;DHT22;1827;50.534;8.316;2023-03-01T00:54:06;-4.20;1.00
3626;DHT22;1827;50.534;8.316;2023-03-01T00:56:36;-4.30;1.00
3626;DHT22;1827;50.534;8.316;2023-03-01T00:59:04;-4.40;1.00
3626;DHT22;1827;50.534;8.316;2023-03-01T01:01:33;-4.50;1.00
3626;DHT22;1827;50.534;8.316;2023-03-01T01:04:03;-4.50;1.00
3626;DHT22;1827;50.534;8.316;2023-03-01T01:06:33;-4.50;1.00
3626;DHT22;1827;50.534;8.316;2023-03-01T01:09:02;-4.50;1.00
3626;DHT22;1827;50.534;8.316;2023-03-01T01:11:33;-4.50;1.00
3626;DHT22;1827;50.534;8.316;2023-03-01T01:14:02;-4.50;1.00
3626;DHT22;1827;50.534;8.316;2023-03-01T01:16:32;-4.50;1.00
3626;DHT22;1827;50.534;8.316;2023-03-01T01:18:58;-4.60;1.00
3626;DHT22;1827;50.534;8.316;2023-03-01T01:21:26;-4.70;1.00
3626;DHT22;1827;50.534;8.316;2023-03-01T01:23:55;-4.70;1.00
3626;DHT22;1827;50.534;8.316;2023-03-01T01:26:27;-4.80;1.00
3626;DHT22;1827;50.534;8.316;2023-03-01T01:28:56;-4.80;1.00
3626;DHT22;1827;50.534;8.316;2023-03-01T01:31:25;-4.90;1.00
3626;DHT22;1827;50.534;8.316;2023-03-01T01:33:55;-4.80;1.00
3626;DHT22;1827;50.534;8.316;2023-03-01T01:36:27;-4.70;1.00
3626;DHT22;1827;50.534;8.316;2023-03-01T01:38:53;-4.80;1.00
3626;DHT22;1827;50.534;8.316;2023-03-01T01:41:25;-4.80;1.00
3626;DHT22;1827;50.534;8.316;2023-03-01T01:44:21;-4.60;1.00
3626;DHT22;1827;50.534;8.316;2023-03-01T01:47:14;-4.70;1.00
3626;DHT22;1827;50.534;8.316;2023-03-01T01:49:44;-4.70;1.00
3626;DHT22;1827;50.534;8.316;2023-03-01T01:52:34;-4.80;1.00
3626;DHT22;1827;50.534;8.316;2023-03-01T01:55:10;-4.80;1.00
3626;DHT22;1827;50.534;8.316;2023-03-01T01:57:45;-4.80;1.00
3626;DHT22;1827;50.534;8.316;2023-03-01T02:00:24;-4.80;1.00
3626;DHT22;1827;50.534;8.316;2023-03-01T02:03:07;-4.90;1.00
3626;DHT22;1827;50.534;8.316;2023-03-01T02:06:19;-4.90;1.00
3626;DHT22;1827;50.534;8.316;2023-03-01T02:08:42;-5.00;1.00
3626;DHT22;1827;50.534;8.316;2023-03-01T02:11:13;-5.00;1.00
3626;DHT22;1827;50.534;8.316;2023-03-01T02:13:41;-5.00;1.00
3626;DHT22;1827;50.534;8.316;2023-03-01T02:16:18;-4.90;1.00
3626;DHT22;1827;50.534;8.316;2023-03-01T02:18:45;-4.80;1.00
3626;DHT22;1827;50.534;8.316;2023-03-01T02:21:34;-4.90;1.00
3626;DHT22;1827;50.534;8.316;2023-03-01T02:27:14;-4.90;1.00
3626;DHT22;1827;50.534;8.316;2023-03-01T02:29:42;-4.90;1.00
3626;DHT22;1827;50.534;8.316;2023-03-01T02:32:13;-4.90;1.00
3626;DHT22;1827;50.534;8.316;2023-03-01T02:34:44;-4.90;1.00
3626;DHT22;1827;50.534;8.316;2023-03-01T02:37:13;-4.80;1.00
3626;DHT22;1827;50.534;8.316;2023-03-01T02:39:48;-5.00;1.00
3626;DHT22;1827;50.534;8.316;2023-03-01T02:42:26;-5.00;1.00
3626;DHT22;1827;50.534;8.316;2023-03-01T02:44:56;-5.10;1.00
3626;DHT22;1827;50.534;8.316;2023-03-01T02:47:22;-4.90;1.00
3626;DHT22;1827;50.534;8.316;2023-03-01T02:49:51;-4.70;1.00
3626;DHT22;1827;50.534;8.316;2023-03-01T02:52:47;-4.30;1.00
3626;DHT22;1827;50.534;8.316;2023-03-01T02:55:21;-4.10;1.00
3626;DHT22;1827;50.534;8.316;2023-03-01T02:57:50;-4.10;1.00
3626;DHT22;1827;50.534;8.316;2023-03-01T03:00:32;-4.20;1.00
3626;DHT22;1827;50.534;8.316;2023-03-01T03:03:02;-4.20;1.00
3626;DHT22;1827;50.534;8.316;2023-03-01T03:05:36;-4.30;1.00
3626;DHT22;1827;50.534;8.316;2023-03-01T03:08:07;-4.50;1.00
3626;DHT22;1827;50.534;8.316;2023-03-01T03:10:40;-4.50;1.00
3626;DHT22;1827;50.534;8.316;2023-03-01T03:13:11;-4.60;1.00
3626;DHT22;1827;50.534;8.316;2023-03-01T03:15:42;-4.70;1.00
3626;DHT22;1827;50.534;8.316;2023-03-01T03:18:15;-4.80;1.00
3626;DHT22;1827;50.534;8.316;2023-03-01T03:20:44;-4.90;1.00
3626;DHT22;1827;50.534;8.316;2023-03-01T03:23:10;-5.00;1.00
3626;DHT22;1827;50.534;8.316;2023-03-01T03:25:38;-5.00;1.00
3626;DHT22;1827;50.534;8.316;2023-03-01T03:28:10;-5.10;1.00
3626;DHT22;1827;50.534;8.316;2023-03-01T03:30:42;-4.90;1.00
3626;DHT22;1827;50.534;8.316;2023-03-01T03:33:13;-4.90;1.00
3626;DHT22;1827;50.534;8.316;2023-03-01T03:35:45;-5.00;1.00
3626;DHT22;1827;50.534;8.316;2023-03-01T03:38:17;-5.10;1.00
3626;DHT22;1827;50.534;8.316;2023-03-01T03:40:59;-5.10;1.00
3626;DHT22;1827;50.534;8.316;2023-03-01T03:43:36;-4.90;1.00
3626;DHT22;1827;50.534;8.316;2023-03-01T03:46:09;-5.10;1.00
3626;DHT22;1827;50.534;8.316;2023-03-01T03:48:39;-5.20;1.00
3626;DHT22;1827;50.534;8.316;2023-03-01T03:51:07;-5.30;1.00
3626;DHT22;1827;50.534;8.316;2023-03-01T03:53:35;-5.40;1.00
3626;DHT22;1827;50.534;8.316;2023-03-01T03:56:01;-5.40;1.00
3626;DHT22;1827;50.534;8.316;2023-03-01T03:58:29;-5.40;1.00
3626;DHT22;1827;50.534;8.316;2023-03-01T04:00:58;-5.30;13.10
3626;DHT22;1827;50.534;8.316;2023-03-01T04:03:29;-5.20;58.00
3626;DHT22;1827;50.534;8.316;2023-03-01T04:06:01;-5.10;85.30
3626;DHT22;1827;50.534;8.316;2023-03-01T04:08:28;-5.10;91.40
3626;DHT22;1827;50.534;8.316;2023-03-01T04:10:59;-5.10;96.70
3626;DHT22;1827;50.534;8.316;2023-03-01T04:13:26;-5.10;99.90
3626;DHT22;1827;50.534;8.316;2023-03-01T04:15:54;-5.20;99.90
3626;DHT22;1827;50.534;8.316;2023-03-01T04:18:22;-5.30;93.20
3626;DHT22;1827;50.534;8.316;2023-03-01T04:20:50;-5.40;90.70
3626;DHT22;1827;50.534;8.316;2023-03-01T04:23:19;-5.30;99.90
3626;DHT22;1827;50.534;8.316;2023-03-01T04:25:50;-5.30;99.90
3626;DHT22;1827;50.534;8.316;2023-03-01T04:28:38;-5.20;99.90
3626;DHT22;1827;50.534;8.316;2023-03-01T04:31:10;-5.20;99.90
3626;DHT22;1827;50.534;8.316;2023-03-01T04:33:46;-5.20;99.90
3626;DHT22;1827;50.534;8.316;2023-03-01T04:36:18;-5.20;99.90
3626;DHT22;1827;50.534;8.316;2023-03-01T04:38:44;-5.30;99.90
3626;DHT22;1827;50.534;8.316;2023-03-01T04:41:20;-5.30;99.90
3626;DHT22;1827;50.534;8.316;2023-03-01T04:43:48;-5.20;99.90
3626;DHT22;1827;50.534;8.316;2023-03-01T04:46:19;-5.30;99.90
3626;DHT22;1827;50.534;8.316;2023-03-01T04:48:53;-5.30;99.90
3626;DHT22;1827;50.534;8.316;2023-03-01T04:51:20;-5.20;99.90
3626;DHT22;1827;50.534;8.316;2023-03-01T04:53:46;-5.30;99.90
3626;DHT22;1827;50.534;8.316;2023-03-01T04:56:14;-5.50;99.90
3626;DHT22;1827;50.534;8.316;2023-03-01T04:58:43;-5.50;99.90
3626;DHT22;1827;50.534;8.316;2023-03-01T05:01:12;-5.60;99.90
3626;DHT22;1827;50.534;8.316;2023-03-01T05:03:47;-5.60;99.90
3626;DHT22;1827;50.534;8.316;2023-03-01T05:06:17;-5.60;99.90
3626;DHT22;1827;50.534;8.316;2023-03-01T05:08:46;-5.60;99.90
3626;DHT22;1827;50.534;8.316;2023-03-01T05:11:12;-5.70;99.90
3626;DHT22;1827;50.534;8.316;2023-03-01T05:13:41;-5.70;99.90
3626;DHT22;1827;50.534;8.316;2023-03-01T05:16:09;-5.70;99.90
3626;DHT22;1827;50.534;8.316;2023-03-01T05:18:41;-5.80;99.90
3626;DHT22;1827;50.534;8.316;2023-03-01T05:21:10;-5.80;99.90
3626;DHT22;1827;50.534;8.316;2023-03-01T05:23:37;-5.90;99.90
3626;DHT22;1827;50.534;8.316;2023-03-01T05:26:07;-5.90;99.90
3626;DHT22;1827;50.534;8.316;2023-03-01T05:28:36;-5.90;99.90
3626;DHT22;1827;50.534;8.316;2023-03-01T05:31:04;-5.90;99.90
3626;DHT22;1827;50.534;8.316;2023-03-01T05:33:42;-5.90;99.90
3626;DHT22;1827;50.534;8.316;2023-03-01T05:36:11;-5.80;99.90
3626;DHT22;1827;50.534;8.316;2023-03-01T05:38:38;-5.80;99.90
3626;DHT22;1827;50.534;8.316;2023-03-01T05:41:04;-5.90;99.90
3626;DHT22;1827;50.534;8.316;2023-03-01T05:43:33;-5.90;99.90
3626;DHT22;1827;50.534;8.316;2023-03-01T05:46:02;-5.90;99.90
3626;DHT22;1827;50.534;8.316;2023-03-01T05:48:28;-5.90;99.90
3626;DHT22;1827;50.534;8.316;2023-03-01T05:50:54;-5.90;99.90
3626;DHT22;1827;50.534;8.316;2023-03-01T05:53:22;-5.90;99.90
3626;DHT22;1827;50.534;8.316;2023-03-01T05:55:50;-5.90;99.90
3626;DHT22;1827;50.534;8.316;2023-03-01T05:58:20;-6.00;99.90
3626;DHT22;1827;50.534;8.316;2023-03-01T06:00:49;-6.00;99.90
3626;DHT22;1827;50.534;8.316;2023-03-01T06:03:16;-6.00;99.90
3626;DHT22;1827;50.534;8.316;2023-03-01T06:05:43;-5.90;99.90
3626;DHT22;1827;50.534;8.316;2023-03-01T06:08:12;-5.90;99.90
3626;DHT22;1827;50.534;8.316;2023-03-01T06:10:40;-5.70;99.90
3626;DHT22;1827;50.534;8.316;2023-03-01T06:13:08;-5.80;99.90
3626;DHT22;1827;50.534;8.316;2023-03-01T06:15:38;-5.90;99.90
3626;DHT22;1827;50.534;8.316;2023-03-01T06:18:11;-5.90;99.90
3626;DHT22;1827;50.534;8.316;2023-03-01T06:20:43;-6.00;99.90
3626;DHT22;1827;50.534;8.316;2023-03-01T06:23:14;-6.00;99.90
3626;DHT22;1827;50.534;8.316;2023-03-01T06:25:43;-6.00;99.90
3626;DHT22;1827;50.534;8.316;2023-03-01T06:28:12;-6.00;99.90
3626;DHT22;1827;50.534;8.316;2023-03-01T06:30:40;-6.00;99.90
3626;DHT22;1827;50.534;8.316;2023-03-01T06:33:07;-5.90;99.90
3626;DHT22;1827;50.534;8.316;2023-03-01T06:35:34;-5.70;99.90
3626;DHT22;1827;50.534;8.316;2023-03-01T06:38:06;-5.60;99.90
3626;DHT22;1827;50.534;8.316;2023-03-01T06:40:35;-5.40;99.90
3626;DHT22;1827;50.534;8.316;2023-03-01T06:43:02;-5.30;99.90
3626;DHT22;1827;50.534;8.316;2023-03-01T06:45:34;-5.20;99.90
3626;DHT22;1827;50.534;8.316;2023-03-01T06:48:07;-5.00;99.90
3626;DHT22;1827;50.534;8.316;2023-03-01T06:50:38;-4.80;99.90
3626;DHT22;1827;50.534;8.316;2023-03-01T06:53:06;-4.70;99.90
3626;DHT22;1827;50.534;8.316;2023-03-01T06:55:33;-4.70;99.90
3626;DHT22;1827;50.534;8.316;2023-03-01T06:58:04;-4.50;99.90
3626;DHT22;1827;50.534;8.316;2023-03-01T07:00:33;-4.40;99.90
3626;DHT22;1827;50.534;8.316;2023-03-01T07:03:01;-4.30;99.90
3626;DHT22;1827;50.534;8.316;2023-03-01T07:05:30;-4.10;99.90
3626;DHT22;1827;50.534;8.316;2023-03-01T07:07:59;-4.00;99.90
3626;DHT22;1827;50.534;8.316;2023-03-01T07:10:26;-3.90;99.90
3626;DHT22;1827;50.534;8.316;2023-03-01T07:12:57;-3.70;99.90
3626;DHT22;1827;50.534;8.316;2023-03-01T07:15:26;-3.50;99.90
3626;DHT22;1827;50.534;8.316;2023-03-01T07:17:57;-3.30;99.90
3626;DHT22;1827;50.534;8.316;2023-03-01T07:20:24;-3.20;99.90
3626;DHT22;1827;50.534;8.316;2023-03-01T07:22:55;-3.10;99.90
3626;DHT22;1827;50.534;8.316;2023-03-01T07:25:25;-2.90;99.90
3626;DHT22;1827;50.534;8.316;2023-03-01T07:27:56;-2.80;99.90
3626;DHT22;1827;50.534;8.316;2023-03-01T07:30:23;-2.60;99.90
3626;DHT22;1827;50.534;8.316;2023-03-01T07:32:56;-2.40;99.90
3626;DHT22;1827;50.534;8.316;2023-03-01T07:35:25;-2.30;99.90
3626;DHT22;1827;50.534;8.316;2023-03-01T07:37:52;-2.10;90.80
3626;DHT22;1827;50.534;8.316;2023-03-01T07:40:22;-1.90;43.10
3626;DHT22;1827;50.534;8.316;2023-03-01T07:42:57;-1.70;27.50
3626;DHT22;1827;50.534;8.316;2023-03-01T07:45:26;-1.50;16.40
3626;DHT22;1827;50.534;8.316;2023-03-01T07:47:54;-1.20;1.00
3626;DHT22;1827;50.534;8.316;2023-03-01T07:50:25;-1.00;1.00
3626;DHT22;1827;50.534;8.316;2023-03-01T07:52:57;-0.90;1.00
3626;DHT22;1827;50.534;8.316;2023-03-01T07:55:26;-0.60;1.00
3626;DHT22;1827;50.534;8.316;2023-03-01T07:57:55;-0.50;1.00
3626;DHT22;1827;50.534;8.316;2023-03-01T08:00:21;-0.50;1.00
3626;DHT22;1827;50.534;8.316;2023-03-01T08:02:47;-0.40;1.00
3626;DHT22;1827;50.534;8.316;2023-03-01T08:05:18;-0.20;1.00
3626;DHT22;1827;50.534;8.316;2023-03-01T08:07:46;0.10;1.00
3626;DHT22;1827;50.534;8.316;2023-03-01T08:10:14;0.10;1.00
3626;DHT22;1827;50.534;8.316;2023-03-01T08:12:41;0.30;1.00
3626;DHT22;1827;50.534;8.316;2023-03-01T08:15:10;0.50;1.00
3626;DHT22;1827;50.534;8.316;2023-03-01T08:17:38;0.70;1.00
3626;DHT22;1827;50.534;8.316;2023-03-01T08:20:08;0.90;1.00
3626;DHT22;1827;50.534;8.316;2023-03-01T08:22:40;1.30;1.00
3626;DHT22;1827;50.534;8.316;2023-03-01T08:25:08;1.40;1.00
3626;DHT22;1827;50.534;8.316;2023-03-01T08:27:35;1.30;1.00
3626;DHT22;1827;50.534;8.316;2023-03-01T08:30:01;1.20;1.00
3626;DHT22;1827;50.534;8.316;2023-03-01T08:32:28;1.40;1.00
3626;DHT22;1827;50.534;8.316;2023-03-01T08:34:57;1.40;1.00
3626;DHT22;1827;50.534;8.316;2023-03-01T08:37:25;1.40;1.00
3626;DHT22;1827;50.534;8.316;2023-03-01T08:39:53;1.60;1.00
3626;DHT22;1827;50.534;8.316;2023-03-01T08:42:23;1.40;1.00
3626;DHT22;1827;50.534;8.316;2023-03-01T08:44:51;1.40;1.00
3626;DHT22;1827;50.534;8.316;2023-03-01T08:47:17;1.60;1.00
3626;DHT22;1827;50.534;8.316;2023-03-01T08:49:43;1.90;1.00
3626;DHT22;1827;50.534;8.316;2023-03-01T08:52:11;1.80;1.00
3626;DHT22;1827;50.534;8.316;2023-03-01T08:54:41;2.00;1.00
3626;DHT22;1827;50.534;8.316;2023-03-01T08:57:07;1.90;1.00
3626;DHT22;1827;50.534;8.316;2023-03-01T08:59:38;2.00;1.00
3626;DHT22;1827;50.534;8.316;2023-03-01T09:02:08;2.00;1.00
3626;DHT22;1827;50.534;8.316;2023-03-01T09:04:35;1.90;1.00
3626;DHT22;1827;50.534;8.316;2023-03-01T09:07:01;1.90;1.00
3626;DHT22;1827;50.534;8.316;2023-03-01T09:09:27;2.10;1.00
3626;DHT22;1827;50.534;8.316;2023-03-01T09:11:52;2.20;1.00
3626;DHT22;1827;50.534;8.316;2023-03-01T09:14:18;2.10;1.00
3626;DHT22;1827;50.534;8.316;2023-03-01T09:16:44;2.40;1.00
3626;DHT22;1827;50.534;8.316;2023-03-01T09:19:13;2.20;1.00
3626;DHT22;1827;50.534;8.316;2023-03-01T09:21:39;2.30;1.00
3626;DHT22;1827;50.534;8.316;2023-03-01T09:24:06;2.20;1.00
3626;DHT22;1827;50.534;8.316;2023-03-01T09:26:32;2.30;99.90
3626;DHT22;1827;50.534;8.316;2023-03-01T09:28:58;2.40;99.90
3626;DHT22;1827;50.534;8.316;2023-03-01T09:31:26;2.60;99.90
3626;DHT22;1827;50.534;8.316;2023-03-01T09:33:53;2.60;99.90
3626;DHT22;1827;50.534;8.316;2023-03-01T09:36:22;2.30;99.90
3626;DHT22;1827;50.534;8.316;2023-03-01T09:38:51;2.80;99.90
3626;DHT22;1827;50.534;8.316;2023-03-01T09:42:12;3.30;99.90
3626;DHT22;1827;50.534;8.316;2023-03-01T09:44:36;3.00;99.90
3626;DHT22;1827;50.534;8.316;2023-03-01T09:47:03;2.90;99.90
3626;DHT22;1827;50.534;8.316;2023-03-01T09:49:33;3.00;99.90
3626;DHT22;1827;50.534;8.316;2023-03-01T09:52:09;3.00;99.90
3626;DHT22;1827;50.534;8.316;2023-03-01T09:54:37;3.40;99.90
3626;DHT22;1827;50.534;8.316;2023-03-01T09:57:05;3.30;99.90
3626;DHT22;1827;50.534;8.316;2023-03-01T09:59:53;3.30;99.90
3626;DHT22;1827;50.534;8.316;2023-03-01T10:02:46;3.50;99.90
3626;DHT22;1827;50.534;8.316;2023-03-01T10:05:36;3.40;99.90
3626;DHT22;1827;50.534;8.316;2023-03-01T10:10:36;3.50;99.90
3626;DHT22;1827;50.534;8.316;2023-03-01T10:13:17;3.60;99.90
3626;DHT22;1827;50.534;8.316;2023-03-01T10:15:48;3.80;99.90
3626;DHT22;1827;50.534;8.316;2023-03-01T10:18:22;3.60;99.90
3626;DHT22;1827;50.534;8.316;2023-03-01T10:20:59;3.90;99.90
3626;DHT22;1827;50.534;8.316;2023-03-01T10:23:27;4.10;99.90
3626;DHT22;1827;50.534;8.316;2023-03-01T10:31:19;4.30;99.90
3626;DHT22;1827;50.534;8.316;2023-03-01T10:33:45;5.00;99.90
3626;DHT22;1827;50.534;8.316;2023-03-01T10:36:16;4.40;99.90
3626;DHT22;1827;50.534;8.316;2023-03-01T10:39:18;4.30;99.90
3626;DHT22;1827;50.534;8.316;2023-03-01T10:41:59;4.60;99.90
3626;DHT22;1827;50.534;8.316;2023-03-01T10:44:47;4.50;99.90
3626;DHT22;1827;50.534;8.316;2023-03-01T10:47:20;4.60;99.90
3626;DHT22;1827;50.534;8.316;2023-03-01T10:50:04;4.50;99.90
3626;DHT22;1827;50.534;8.316;2023-03-01T10:52:38;4.70;99.90
3626;DHT22;1827;50.534;8.316;2023-03-01T10:57:39;4.70;99.90
3626;DHT22;1827;50.534;8.316;2023-03-01T11:02:48;5.10;99.90
3626;DHT22;1827;50.534;8.316;2023-03-01T11:07:49;5.00;99.90
3626;DHT22;1827;50.534;8.316;2023-03-01T11:10:30;5.00;99.90
3626;DHT22;1827;50.534;8.316;2023-03-01T11:13:18;5.00;99.90
3626;DHT22;1827;50.534;8.316;2023-03-01T11:15:59;5.00;99.90
3626;DHT22;1827;50.534;8.316;2023-03-01T11:18:26;4.80;99.90
3626;DHT22;1827;50.534;8.316;2023-03-01T11:20:55;4.90;99.90
3626;DHT22;1827;50.534;8.316;2023-03-01T11:23:22;4.90;99.90
3626;DHT22;1827;50.534;8.316;2023-03-01T11:25:54;5.10;99.90
3626;DHT22;1827;50.534;8.316;2023-03-01T11:28:20;4.90;99.90
3626;DHT22;1827;50.534;8.316;2023-03-01T11:31:06;5.30;99.90
3626;DHT22;1827;50.534;8.316;2023-03-01T11:36:28;6.40;99.90
3626;DHT22;1827;50.534;8.316;2023-03-01T11:38:57;6.00;99.90
3626;DHT22;1827;50.534;8.316;2023-03-01T11:41:31;5.80;99.90
3626;DHT22;1827;50.534;8.316;2023-03-01T11:44:33;6.50;99.90
3626;DHT22;1827;50.534;8.316;2023-03-01T12:00:44;5.60;99.90
3626;DHT22;1827;50.534;8.316;2023-03-01T12:25:21;6.70;99.90
3626;DHT22;1827;50.534;8.316;2023-03-01T12:36:12;5.90;99.90
3626;DHT22;1827;50.534;8.316;2023-03-01T12:38:59;5.90;99.90
3626;DHT22;1827;50.534;8.316;2023-03-01T12:49:39;6.00;99.90
3626;DHT22;1827;50.534;8.316;2023-03-01T12:54:51;6.30;99.90
3626;DHT22;1827;50.534;8.316;2023-03-01T12:57:37;6.10;99.90
3626;DHT22;1827;50.534;8.316;2023-03-01T13:00:35;6.10;99.90
3626;DHT22;1827;50.534;8.316;2023-03-01T13:03:14;6.30;99.90
3626;DHT22;1827;50.534;8.316;2023-03-01T13:11:27;6.40;99.90
3626;DHT22;1827;50.534;8.316;2023-03-01T13:16:54;6.40;99.90
3626;DHT22;1827;50.534;8.316;2023-03-01T13:19:26;6.30;99.90
3626;DHT22;1827;50.534;8.316;2023-03-01T13:21:53;6.20;99.90
3626;DHT22;1827;50.534;8.316;2023-03-01T13:24:37;6.30;99.90
3626;DHT22;1827;50.534;8.316;2023-03-01T13:29:50;6.40;99.90
3626;DHT22;1827;50.534;8.316;2023-03-01T13:32:23;6.70;99.90
3626;DHT22;1827;50.534;8.316;2023-03-01T13:34:56;6.50;99.90
3626;DHT22;1827;50.534;8.316;2023-03-01T13:37:34;6.60;99.90
3626;DHT22;1827;50.534;8.316;2023-03-01T13:42:56;6.80;99.90
3626;DHT22;1827;50.534;8.316;2023-03-01T13:45:40;6.60;99.90
3626;DHT22;1827;50.534;8.316;2023-03-01T13:48:27;6.60;99.90
3626;DHT22;1827;50.534;8.316;2023-03-01T13:51:12;6.60;99.90
3626;DHT22;1827;50.534;8.316;2023-03-01T13:53:49;6.40;99.90
3626;DHT22;1827;50.534;8.316;2023-03-01T13:56:18;6.40;99.90
3626;DHT22;1827;50.534;8.316;2023-03-01T14:01:32;6.40;99.90
3626;DHT22;1827;50.534;8.316;2023-03-01T14:03:59;6.50;99.90
3626;DHT22;1827;50.534;8.316;2023-03-01T14:06:27;6.50;99.90
3626;DHT22;1827;50.534;8.316;2023-03-01T14:09:25;6.50;99.90
3626;DHT22;1827;50.534;8.316;2023-03-01T14:20:24;6.70;99.90
3626;DHT22;1827;50.534;8.316;2023-03-01T14:22:54;6.90;99.90
3626;DHT22;1827;50.534;8.316;2023-03-01T14:27:56;6.60;99.90
3626;DHT22;1827;50.534;8.316;2023-03-01T14:30:25;6.70;99.90
3626;DHT22;1827;50.534;8.316;2023-03-01T14:32:56;6.80;99.90
3626;DHT22;1827;50.534;8.316;2023-03-01T14:35:27;6.60;99.90
3626;DHT22;1827;50.534;8.316;2023-03-01T14:37:56;6.70;99.90
3626;DHT22;1827;50.534;8.316;2023-03-01T14:40:35;6.70;99.90
3626;DHT22;1827;50.534;8.316;2023-03-01T14:43:08;6.70;99.90
3626;DHT22;1827;50.534;8.316;2023-03-01T14:45:34;6.70;99.90
3626;DHT22;1827;50.534;8.316;2023-03-01T14:48:02;6.80;99.90
3626;DHT22;1827;50.534;8.316;2023-03-01T14:50:31;6.80;99.90
3626;DHT22;1827;50.534;8.316;2023-03-01T14:53:00;6.60;99.90
3626;DHT22;1827;50.534;8.316;2023-03-01T14:55:34;6.60;99.90
3626;DHT22;1827;50.534;8.316;2023-03-01T14:58:04;6.60;99.90
3626;DHT22;1827;50.534;8.316;2023-03-01T15:00:32;6.70;99.90
3626;DHT22;1827;50.534;8.316;2023-03-01T15:03:48;6.60;99.90
3626;DHT22;1827;50.534;8.316;2023-03-01T15:05:57;6.60;99.90
3626;DHT22;1827;50.534;8.316;2023-03-01T15:08:27;6.60;99.90
3626;DHT22;1827;50.534;8.316;2023-03-01T15:11:03;6.60;99.90
3626;DHT22;1827;50.534;8.316;2023-03-01T15:13:33;6.50;99.90
3626;DHT22;1827;50.534;8.316;2023-03-01T15:16:06;6.50;99.90
3626;DHT22;1827;50.534;8.316;2023-03-01T15:18:34;6.50;99.90
3626;DHT22;1827;50.534;8.316;2023-03-01T15:21:22;6.50;99.90
3626;DHT22;1827;50.534;8.316;2023-03-01T15:24:30;6.50;99.90
3626;DHT22;1827;50.534;8.316;2023-03-01T15:27:34;6.40;99.90
3626;DHT22;1827;50.534;8.316;2023-03-01T15:30:05;6.50;99.90
3626;DHT22;1827;50.534;8.316;2023-03-01T15:32:41;6.40;99.90
3626;DHT22;1827;50.534;8.316;2023-03-01T15:35:43;6.40;99.90
3626;DHT22;1827;50.534;8.316;2023-03-01T15:41:21;6.40;99.90
3626;DHT22;1827;50.534;8.316;2023-03-01T15:43:49;6.40;99.90
3626;DHT22;1827;50.534;8.316;2023-03-01T15:46:31;6.40;99.90
3626;DHT22;1827;50.534;8.316;2023-03-01T15:51:49;6.40;99.90
3626;DHT22;1827;50.534;8.316;2023-03-01T15:54:21;6.30;99.90
3626;DHT22;1827;50.534;8.316;2023-03-01T15:56:51;6.20;99.90
3626;DHT22;1827;50.534;8.316;2023-03-01T15:59:19;6.20;99.90
3626;DHT22;1827;50.534;8.316;2023-03-01T16:01:51;6.20;99.90
3626;DHT22;1827;50.534;8.316;2023-03-01T16:04:20;6.20;99.90
3626;DHT22;1827;50.534;8.316;2023-03-01T16:06:54;6.10;99.90
3626;DHT22;1827;50.534;8.316;2023-03-01T16:09:25;6.10;99.90
3626;DHT22;1827;50.534;8.316;2023-03-01T16:11:53;6.00;99.90
3626;DHT22;1827;50.534;8.316;2023-03-01T16:14:23;6.00;99.90
3626;DHT22;1827;50.534;8.316;2023-03-01T16:16:49;6.00;99.90
3626;DHT22;1827;50.534;8.316;2023-03-01T16:19:16;5.90;99.90
3626;DHT22;1827;50.534;8.316;2023-03-01T16:21:45;5.80;99.90
3626;DHT22;1827;50.534;8.316;2023-03-01T16:24:22;5.70;99.90
3626;DHT22;1827;50.534;8.316;2023-03-01T16:26:56;5.70;99.90
3626;DHT22;1827;50.534;8.316;2023-03-01T16:29:26;5.70;99.90
3626;DHT22;1827;50.534;8.316;2023-03-01T16:31:56;5.60;99.90
3626;DHT22;1827;50.534;8.316;2023-03-01T16:34:25;5.50;99.90
3626;DHT22;1827;50.534;8.316;2023-03-01T16:36:51;5.50;99.90
3626;DHT22;1827;50.534;8.316;2023-03-01T16:39:16;5.40;99.90
3626;DHT22;1827;50.534;8.316;2023-03-01T16:41:43;5.50;99.90
3626;DHT22;1827;50.534;8.316;2023-03-01T16:44:09;5.40;99.90
3626;DHT22;1827;50.534;8.316;2023-03-01T16:46:38;5.40;99.90
3626;DHT22;1827;50.534;8.316;2023-03-01T16:49:08;5.40;99.90
3626;DHT22;1827;50.534;8.316;2023-03-01T16:51:35;5.40;99.90
3626;DHT22;1827;50.534;8.316;2023-03-01T16:54:05;5.20;99.90
3626;DHT22;1827;50.534;8.316;2023-03-01T16:56:32;5.00;99.90
3626;DHT22;1827;50.534;8.316;2023-03-01T16:59:02;5.00;99.90
3626;DHT22;1827;50.534;8.316;2023-03-01T17:01:28;5.00;99.90
3626;DHT22;1827;50.534;8.316;2023-03-01T17:04:04;4.80;99.90
3626;DHT22;1827;50.534;8.316;2023-03-01T17:06:32;4.80;99.90
3626;DHT22;1827;50.534;8.316;2023-03-01T17:08:59;4.70;99.90
3626;DHT22;1827;50.534;8.316;2023-03-01T17:11:25;4.60;99.90
3626;DHT22;1827;50.534;8.316;2023-03-01T17:13:51;4.60;99.90
3626;DHT22;1827;50.534;8.316;2023-03-01T17:16:20;4.50;99.90
3626;DHT22;1827;50.534;8.316;2023-03-01T17:18:48;4.30;99.90
3626;DHT22;1827;50.534;8.316;2023-03-01T17:21:15;4.40;99.90
3626;DHT22;1827;50.534;8.316;2023-03-01T17:23:44;4.40;99.90
3626;DHT22;1827;50.534;8.316;2023-03-01T17:26:10;4.20;99.90
3626;DHT22;1827;50.534;8.316;2023-03-01T17:28:37;4.20;99.90
3626;DHT22;1827;50.534;8.316;2023-03-01T17:31:06;4.20;99.90
3626;DHT22;1827;50.534;8.316;2023-03-01T17:33:31;4.00;99.90
3626;DHT22;1827;50.534;8.316;2023-03-01T17:35:58;4.00;99.90
3626;DHT22;1827;50.534;8.316;2023-03-01T17:38:24;3.80;99.90
3626;DHT22;1827;50.534;8.316;2023-03-01T17:40:50;3.70;99.90
3626;DHT22;1827;50.534;8.316;2023-03-01T17:43:17;3.60;99.90
3626;DHT22;1827;50.534;8.316;2023-03-01T17:45:46;3.40;99.90
3626;DHT22;1827;50.534;8.316;2023-03-01T17:48:16;3.30;99.90
3626;DHT22;1827;50.534;8.316;2023-03-01T17:50:43;3.40;99.90
3626;DHT22;1827;50.534;8.316;2023-03-01T17:53:09;3.30;99.90
3626;DHT22;1827;50.534;8.316;2023-03-01T17:55:37;3.30;99.90
3626;DHT22;1827;50.534;8.316;2023-03-01T17:58:04;3.30;99.90
3626;DHT22;1827;50.534;8.316;2023-03-01T18:00:30;3.20;99.90
3626;DHT22;1827;50.534;8.316;2023-03-01T18:02:56;3.20;99.90
3626;DHT22;1827;50.534;8.316;2023-03-01T18:05:23;3.00;99.90
3626;DHT22;1827;50.534;8.316;2023-03-01T18:07:50;3.10;99.90
3626;DHT22;1827;50.534;8.316;2023-03-01T18:10:17;3.10;99.90
3626;DHT22;1827;50.534;8.316;2023-03-01T18:12:42;3.20;99.90
3626;DHT22;1827;50.534;8.316;2023-03-01T18:15:08;3.10;99.90
3626;DHT22;1827;50.534;8.316;2023-03-01T18:17:34;3.20;99.90
3626;DHT22;1827;50.534;8.316;2023-03-01T18:20:00;3.20;99.90
3626;DHT22;1827;50.534;8.316;2023-03-01T18:22:26;3.10;99.90
3626;DHT22;1827;50.534;8.316;2023-03-01T18:24:51;3.20;99.90
3626;DHT22;1827;50.534;8.316;2023-03-01T18:27:17;3.30;99.90
3626;DHT22;1827;50.534;8.316;2023-03-01T18:29:43;3.30;99.90
3626;DHT22;1827;50.534;8.316;2023-03-01T18:32:09;3.30;99.90